Time;durP1;ratioP1;P1;durP2;ratioP2;P2;SDS_P1;SDS_P2;PMS_P1;PMS_P2;Temp;Humidity;BMP_temperature;BMP_pressure;BME280_temperature;BME280_humidity;BME280_pressure;Samples;Min_cycle;Max_cycle;Signal;HPM_P1;HPM_P2
2021/04/05 04:43:06;;;;;;;31.48;16.38;;;8.00;92.40;;;;;;5185809;23;19929;-68
2021/04/05 04:45:33;;;;;;;30.27;14.35;;;8.10;92.40;;;;;;5009802;28;20038;-67
2021/04/05 04:47:59;;;;;;;30.05;15.70;;;8.00;92.40;;;;;;5009963;28;20385;-67
2021/04/05 04:50:26;;;;;;;28.13;14.23;;;8.00;92.60;;;;;;4993144;28;20026;-68
2021/04/05 04:52:53;;;;;;;27.02;15.88;;;8.00;92.70;;;;;;4993426;28;20022;-68
2021/04/05 04:55:20;;;;;;;20.83;12.70;;;8.10;92.80;;;;;;4993936;28;20065;-68
2021/04/05 04:57:46;;;;;;;24.35;12.77;;;8.10;92.80;;;;;;4992315;28;20113;-67
2021/04/05 05:00:13;;;;;;;24.05;12.55;;;8.10;92.80;;;;;;4991687;28;20109;-68
2021/04/05 05:02:40;;;;;;;22.02;11.50;;;8.20;93.10;;;;;;4992300;28;20050;-67
2021/04/05 05:05:07;;;;;;;23.45;11.60;;;8.20;92.70;;;;;;4992171;28;20470;-68
2021/04/05 05:07:35;;;;;;;19.63;11.68;;;8.30;92.70;;;;;;4992468;28;20121;-67
2021/04/05 05:10:03;;;;;;;20.33;11.32;;;8.30;92.60;;;;;;5007808;28;20033;-67
2021/04/05 05:12:30;;;;;;;19.60;11.43;;;8.30;92.50;;;;;;4993116;28;20019;-67
2021/04/05 05:14:56;;;;;;;20.00;11.63;;;8.30;92.40;;;;;;4992916;28;20153;-67
2021/04/05 05:17:21;;;;;;;20.63;10.50;;;8.30;92.30;;;;;;4993496;28;20042;-68
2021/04/05 05:19:49;;;;;;;17.60;9.57;;;8.40;92.30;;;;;;4992622;28;20128;-67
2021/04/05 05:22:16;;;;;;;16.92;9.52;;;8.40;92.10;;;;;;4993641;28;20018;-67
2021/04/05 05:24:44;;;;;;;18.25;9.02;;;8.40;92.00;;;;;;4992502;28;20026;-67
2021/04/05 05:27:11;;;;;;;17.48;9.27;;;8.50;91.90;;;;;;4993456;28;20042;-66
2021/04/05 05:29:38;;;;;;;20.52;10.77;;;8.50;91.80;;;;;;4993130;28;20097;-67
2021/04/05 05:32:05;;;;;;;15.38;9.98;;;8.50;91.60;;;;;;4992426;28;20034;-67
2021/04/05 05:34:30;;;;;;;16.67;9.50;;;8.60;91.50;;;;;;4991671;28;20036;-66
2021/04/05 05:36:56;;;;;;;13.52;8.15;;;8.60;91.40;;;;;;4997754;28;20108;-67
2021/04/05 05:39:22;;;;;;;14.93;8.07;;;8.70;91.30;;;;;;5011905;28;20032;-67
2021/04/05 05:42:09;;;;;;;20.35;8.88;;;8.70;91.20;;;;;;5012516;28;20500;-66
2021/04/05 05:44:52;;;;;;;24.77;15.60;;;8.70;91.10;;;;;;5012223;28;20091;-68
2021/04/05 05:47:45;;;;;;;29.13;17.48;;;8.80;91.10;;;;;;5012200;28;20058;-67
2021/04/05 05:50:31;;;;;;;7.93;3.03;;;8.50;90.50;;;;;;5012631;28;20030;-67
2021/04/05 05:53:18;;;;;;;8.75;6.05;;;7.90;90.80;;;;;;5011394;28;20026;-68
2021/04/05 05:56:20;;;;;;;3.28;2.17;;;7.50;91.30;;;;;;5012581;28;20029;-66
2021/04/05 05:59:23;;;;;;;9.15;7.22;;;7.20;92.10;;;;;;5012307;28;20037;-67
2021/04/05 06:01:57;;;;;;;4.97;1.70;;;6.90;92.70;;;;;;5012518;28;20058;-68
2021/04/05 06:04:39;;;;;;;7.10;6.38;;;6.80;93.00;;;;;;5012532;28;20018;-67
2021/04/05 06:07:33;;;;;;;9.05;7.47;;;6.60;93.20;;;;;;5010334;28;20050;-68
2021/04/05 06:10:07;;;;;;;3.47;1.60;;;6.60;93.50;;;;;;5011657;28;20030;-67
2021/04/05 06:13:08;;;;;;;4.35;1.65;;;6.60;93.70;;;;;;5012452;28;20028;-66
2021/04/05 06:15:57;;;;;;;26.00;19.50;;;6.60;93.80;;;;;;5010572;28;20056;-67
2021/04/05 06:18:25;;;;;;;4.45;2.47;;;6.60;93.70;;;;;;5012520;28;20041;-68
2021/04/05 06:20:56;;;;;;;2.95;1.80;;;6.50;93.50;;;;;;5011443;28;20029;-68
2021/04/05 06:23:51;;;;;;;5.07;1.48;;;6.50;93.70;;;;;;5012288;28;20022;-67
2021/04/05 06:26:28;;;;;;;3.35;1.00;;;6.50;93.60;;;;;;5012189;28;20034;-66
2021/04/05 06:29:02;;;;;;;21.70;19.73;;;6.40;93.50;;;;;;5011340;28;20116;-66
2021/04/05 06:31:32;;;;;;;2.63;1.23;;;6.30;93.40;;;;;;5011070;28;20034;-67
2021/04/05 06:34:06;;;;;;;2.47;1.17;;;6.30;93.30;;;;;;5012003;28;20117;-65
2021/04/05 06:36:48;;;;;;;5.00;1.50;;;6.30;93.50;;;;;;5009337;28;20416;-66
2021/04/05 06:39:22;;;;;;;4.18;1.35;;;6.40;93.50;;;;;;4992732;28;20027;-67
2021/04/05 06:42:17;;;;;;;11.10;3.88;;;6.40;93.70;;;;;;4990381;28;20101;-67
2021/04/05 06:44:51;;;;;;;6.57;1.90;;;6.40;93.30;;;;;;4992494;28;20035;-67
2021/04/05 06:47:28;;;;;;;2.53;1.40;;;6.40;93.40;;;;;;4992352;28;20033;-67
2021/04/05 06:50:20;;;;;;;4.10;2.25;;;6.40;93.50;;;;;;4991441;28;20057;-67
2021/04/05 06:52:48;;;;;;;6.10;2.10;;;6.40;93.50;;;;;;4992787;28;20101;-66
2021/04/05 06:55:20;;;;;;;6.15;1.20;;;6.30;93.10;;;;;;5001197;28;20041;-67
2021/04/05 06:58:07;;;;;;;71.55;58.83;;;6.30;93.10;;;;;;5013592;28;20072;-67
2021/04/05 07:00:56;;;;;;;4.07;1.58;;;6.30;92.90;;;;;;4996786;28;20030;-66
2021/04/05 07:03:39;;;;;;;4.43;1.48;;;6.30;92.80;;;;;;5008546;28;20056;-66
2021/04/05 07:06:46;;;;;;;28.45;18.85;;;6.40;92.70;;;;;;5014064;28;20037;-68
2021/04/05 07:09:37;;;;;;;8.98;1.63;;;6.40;92.60;;;;;;5015174;28;20096;-67
2021/04/05 07:12:16;;;;;;;154.85;95.40;;;6.50;92.70;;;;;;5000071;28;20401;-67
2021/04/05 07:14:57;;;;;;;7.82;2.53;;;6.50;92.20;;;;;;4995594;28;20045;-67
2021/04/05 07:17:40;;;;;;;6.20;2.90;;;6.30;92.30;;;;;;4995308;28;20049;-67
2021/04/05 07:20:15;;;;;;;13.63;8.55;;;6.10;92.70;;;;;;4995740;28;20042;-68
2021/04/05 07:23:04;;;;;;;3.63;1.02;;;5.90;92.90;;;;;;4995579;28;20113;-66
2021/04/05 07:25:51;;;;;;;6.65;1.88;;;5.70;93.10;;;;;;4993854;28;20027;-66
2021/04/05 07:28:30;;;;;;;328.98;172.80;;;5.70;93.00;;;;;;4995481;28;20030;-67
2021/04/05 07:31:02;;;;;;;10.68;7.20;;;5.60;92.40;;;;;;4994584;28;20026;-67
2021/04/05 07:33:38;;;;;;;;;;;5.50;92.60;;;;;;4995716;28;20470;-66
2021/04/05 07:36:20;;;;;;;45.30;30.90;;;5.40;93.00;;;;;;4995489;28;20000;-67
2021/04/05 07:38:57;;;;;;;;;;;5.50;93.00;;;;;;5003507;28;20038;-67
2021/04/05 07:41:45;;;;;;;22.38;14.60;;;5.50;93.00;;;;;;5004233;28;19980;-67
2021/04/05 07:44:29;;;;;;;14.25;6.70;;;5.50;92.90;;;;;;4998134;28;20042;-67
2021/04/05 07:47:06;;;;;;;13.70;9.50;;;5.40;92.70;;;;;;4993835;28;20033;-68
2021/04/05 07:49:57;;;;;;;13.25;4.88;;;5.30;93.00;;;;;;5003680;28;20069;-68
2021/04/05 07:52:46;;;;;;;29.52;16.83;;;5.20;92.80;;;;;;5009963;28;20119;-66
2021/04/05 07:55:13;;;;;;;136.38;78.57;;;5.10;93.10;;;;;;5011200;28;20041;-69
2021/04/05 07:57:54;;;;;;;24.17;14.40;;;5.10;93.00;;;;;;5014139;28;20378;-69
2021/04/05 08:00:42;;;;;;;441.65;47.22;;;5.00;92.50;;;;;;5014393;28;20080;-68
2021/04/05 08:03:46;;;;;;;31.13;19.02;;;4.90;92.60;;;;;;5013264;28;20026;-67
2021/04/05 08:06:14;;;;;;;54.47;6.38;;;4.90;92.60;;;;;;5003212;28;20026;-65
2021/04/05 08:08:52;;;;;;;24.52;12.63;;;4.90;92.30;;;;;;4997874;28;20026;-64
2021/04/05 08:11:40;;;;;;;18.48;4.15;;;5.10;92.30;;;;;;5011785;28;20482;-66
2021/04/05 08:14:45;;;;;;;20.67;13.00;;;5.20;91.50;;;;;;4993834;28;20026;-65
2021/04/05 08:17:39;;;;;;;13.98;3.17;;;5.30;90.60;;;;;;4997131;28;20478;-65
2021/04/05 08:20:28;;;;;;;21.25;5.45;;;5.40;90.50;;;;;;4997653;28;20042;-66
2021/04/05 08:23:25;;;;;;;16.08;5.78;;;5.50;90.60;;;;;;4994280;28;20054;-66
2021/04/05 08:26:01;;;;;;;18.40;8.65;;;5.70;90.20;;;;;;4996436;28;20033;-66
2021/04/05 08:28:42;;;;;;;35.75;18.52;;;5.70;89.00;;;;;;5013262;28;20030;-65
2021/04/05 08:31:36;;;;;;;8.20;2.40;;;5.70;88.40;;;;;;5012250;28;20509;-66
2021/04/05 08:34:30;;;;;;;9.95;2.70;;;5.70;87.10;;;;;;5010311;28;20037;-66
2021/04/05 08:37:34;;;;;;;20.58;9.15;;;5.90;85.20;;;;;;5013473;28;20026;-66
2021/04/05 08:40:10;;;;;;;44.00;21.17;;;6.00;82.40;;;;;;5012779;28;20042;-65
2021/04/05 08:42:59;;;;;;;70.88;29.50;;;6.20;81.60;;;;;;5000246;28;20060;-66
2021/04/05 08:45:36;;;;;;;23.52;13.30;;;6.20;78.30;;;;;;4995591;28;20058;-67
2021/04/05 08:48:06;;;;;;;11.82;4.70;;;6.20;78.30;;;;;;5012389;28;20015;-66
2021/04/05 08:50:38;;;;;;;8.90;2.05;;;6.20;78.60;;;;;;5013164;28;20446;-67
2021/04/05 08:53:04;;;;;;;9.18;2.05;;;6.30;76.60;;;;;;5005689;28;20034;-66
2021/04/05 08:55:32;;;;;;;12.98;6.40;;;6.40;75.60;;;;;;5002551;28;20133;-67
2021/04/05 08:58:06;;;;;;;9.70;1.95;;;6.50;75.10;;;;;;4999810;28;20030;-67
2021/04/05 09:00:36;;;;;;;10.20;3.53;;;6.50;74.10;;;;;;4999270;28;20501;-68
2021/04/05 09:03:08;;;;;;;58.53;30.05;;;6.60;72.70;;;;;;4991392;28;20068;-67
2021/04/05 09:05:47;;;;;;;5.68;1.50;;;6.70;70.50;;;;;;4999126;28;20493;-67
2021/04/05 09:08:14;;;;;;;9.02;4.90;;;6.60;71.10;;;;;;5007312;28;20029;-66
2021/04/05 09:10:46;;;;;;;10.35;3.38;;;6.60;71.20;;;;;;5001125;28;20029;-68
2021/04/05 09:13:37;;;;;;;38.78;20.95;;;6.60;72.70;;;;;;4998994;28;20018;-67
2021/04/05 09:16:24;;;;;;;13.18;3.25;;;6.40;72.70;;;;;;4996470;28;20038;-64
2021/04/05 09:19:07;;;;;;;39.78;15.90;;;6.20;75.30;;;;;;4992517;28;20034;-66
2021/04/05 09:21:59;;;;;;;4.78;1.20;;;5.90;79.40;;;;;;4999992;28;20033;-67
2021/04/05 09:25:01;;;;;;;4.70;1.00;;;5.90;80.40;;;;;;5012304;28;20486;-68
2021/04/05 09:27:48;;;;;;;1.65;1.02;;;6.00;80.00;;;;;;5025501;28;20044;-65
2021/04/05 09:30:36;;;;;;;2.22;1.10;;;6.10;80.00;;;;;;5028162;28;20416;-66
2021/04/05 09:33:21;;;;;;;21.25;18.38;;;6.40;80.60;;;;;;4996095;28;20056;-66
2021/04/05 09:36:21;;;;;;;15.77;9.60;;;6.50;79.70;;;;;;4991761;28;20482;-66
2021/04/05 09:39:05;;;;;;;4.50;4.20;;;6.10;80.30;;;;;;4992048;28;20088;-66
2021/04/05 09:41:55;;;;;;;6.70;2.67;;;5.50;82.50;;;;;;4993402;28;20077;-65
2021/04/05 09:44:32;;;;;;;17.10;7.95;;;5.00;84.90;;;;;;5010677;28;20121;-66
2021/04/05 09:46:58;;;;;;;3.15;1.15;;;5.00;85.10;;;;;;5030767;28;20480;-68
2021/04/05 09:49:47;;;;;;;17.60;14.57;;;4.90;83.30;;;;;;5032311;28;20029;-65
2021/04/05 09:52:27;;;;;;;13.00;11.70;;;4.90;84.40;;;;;;5015470;28;20038;-65
2021/04/05 09:54:59;;;;;;;4.50;1.20;;;5.00;84.20;;;;;;5004986;28;20033;-67
2021/04/05 09:57:38;;;;;;;7.25;2.08;;;5.10;84.10;;;;;;5007351;28;20018;-71
2021/04/05 10:00:12;;;;;;;6.97;1.70;;;5.30;83.30;;;;;;5011470;28;20505;-67
2021/04/05 10:02:53;;;;;;;5.30;3.45;;;5.40;83.00;;;;;;5007340;28;20018;-66
2021/04/05 10:05:21;;;;;;;8.82;3.75;;;5.50;83.00;;;;;;5011339;28;20033;-66
2021/04/05 10:07:54;;;;;;;6.80;1.98;;;5.60;81.30;;;;;;5011030;28;20083;-66
2021/04/05 10:10:22;;;;;;;7.65;2.05;;;5.70;81.20;;;;;;5010976;28;20033;-65
2021/04/05 10:12:48;;;;;;;10.25;2.28;;;5.80;79.30;;;;;;5011317;28;20073;-65
2021/04/05 10:15:17;;;;;;;8.45;2.53;;;5.80;78.40;;;;;;4999139;28;20034;-66
2021/04/05 10:17:47;;;;;;;21.55;17.75;;;5.80;76.60;;;;;;4991957;28;20030;-66
2021/04/05 10:20:14;;;;;;;14.40;3.40;;;5.90;74.10;;;;;;4992040;28;20030;-66
2021/04/05 10:22:45;;;;;;;6.22;2.05;;;5.90;72.80;;;;;;4992906;28;20030;-68
2021/04/05 10:25:14;;;;;;;8.70;6.70;;;6.10;72.30;;;;;;4992948;28;20026;-64
2021/04/05 10:27:41;;;;;;;12.18;4.30;;;6.20;71.70;;;;;;4990389;28;20468;-68
2021/04/05 10:30:09;;;;;;;11.82;6.32;;;6.10;71.50;;;;;;4992180;28;20545;-66
2021/04/05 10:32:40;;;;;;;8.30;2.45;;;6.00;70.50;;;;;;4997449;28;20014;-66
2021/04/05 10:35:09;;;;;;;9.18;2.33;;;5.80;72.30;;;;;;5015634;28;20033;-67
2021/04/05 10:37:39;;;;;;;11.63;4.20;;;5.80;72.40;;;;;;4998294;28;20037;-71
2021/04/05 10:40:10;;;;;;;14.70;6.90;;;5.90;72.60;;;;;;5013167;28;20037;-66
2021/04/05 10:42:53;;;;;;;20.98;10.57;;;5.90;72.50;;;;;;4997818;28;20046;-64
2021/04/05 10:45:21;;;;;;;7.43;2.15;;;5.80;70.80;;;;;;4996539;28;20105;-66
2021/04/05 10:47:54;;;;;;;9.18;3.78;;;5.60;69.50;;;;;;4996128;28;20545;-65
2021/04/05 10:50:26;;;;;;;11.32;3.38;;;5.40;67.60;;;;;;4997866;28;20054;-67
2021/04/05 10:52:58;;;;;;;6.55;2.05;;;5.30;65.70;;;;;;5008236;28;20021;-67
2021/04/05 10:55:25;;;;;;;;;;;5.20;65.00;;;;;;5015441;28;20605;-67
2021/04/05 10:57:58;;;;;;;10.23;1.98;;;5.30;64.10;;;;;;4999041;28;20012;-65
2021/04/05 11:00:31;;;;;;;7.50;1.73;;;5.30;65.40;;;;;;5014229;28;20488;-66
2021/04/05 11:03:21;;;;;;;7.53;3.10;;;5.40;63.90;;;;;;5002520;28;20108;-67
2021/04/05 11:05:49;;;;;;;9.10;3.20;;;5.30;65.30;;;;;;4995791;28;20093;-67
2021/04/05 11:08:19;;;;;;;77.53;33.97;;;5.40;63.40;;;;;;4995455;28;20390;-68
2021/04/05 11:10:46;;;;;;;12.65;2.30;;;5.60;63.00;;;;;;4999881;28;20018;-65
2021/04/05 11:13:14;;;;;;;14.88;7.35;;;5.80;61.00;;;;;;5015304;28;20017;-66
2021/04/05 11:15:42;;;;;;;10.90;2.13;;;6.00;63.70;;;;;;5009587;28;20041;-66
2021/04/05 11:18:11;;;;;;;6.70;1.85;;;5.90;67.40;;;;;;4997658;28;20022;-68
2021/04/05 11:20:40;;;;;;;11.00;4.05;;;5.30;71.50;;;;;;4994484;28;20030;-67
2021/04/05 11:23:09;;;;;;;10.50;2.40;;;4.50;75.30;;;;;;4994797;28;20109;-67
2021/04/05 11:25:39;;;;;;;5.57;1.90;;;4.00;77.80;;;;;;4995796;28;20383;-67
2021/04/05 11:28:23;;;;;;;7.88;2.30;;;3.70;79.50;;;;;;4994993;28;20026;-66
2021/04/05 11:30:55;;;;;;;10.45;2.10;;;3.70;79.60;;;;;;5004798;28;20026;-67
2021/04/05 11:33:27;;;;;;;9.38;4.00;;;3.70;79.20;;;;;;5014891;28;20053;-67
2021/04/05 11:35:54;;;;;;;;;;;3.90;78.10;;;;;;5015307;28;20088;-68
2021/04/05 11:38:21;;;;;;;15.23;2.63;;;3.80;77.50;;;;;;5013919;28;20407;-68
2021/04/05 11:40:48;;;;;;;4.90;1.65;;;3.70;77.40;;;;;;5013435;28;20087;-65
2021/04/05 11:43:20;;;;;;;10.38;2.05;;;3.70;77.20;;;;;;4996197;28;20038;-66
2021/04/05 11:45:51;;;;;;;9.55;1.83;;;3.80;78.50;;;;;;4996657;28;20029;-67
2021/04/05 11:48:20;;;;;;;11.18;2.25;;;3.90;77.90;;;;;;4995348;28;20076;-67
2021/04/05 11:50:47;;;;;;;13.95;8.30;;;4.10;78.10;;;;;;5013855;28;20026;-68
2021/04/05 11:53:26;;;;;;;12.35;3.30;;;4.30;74.70;;;;;;5011591;28;20025;-68
2021/04/05 11:56:20;;;;;;;15.10;9.13;;;4.40;73.70;;;;;;5012128;28;20037;-67
2021/04/05 11:58:57;;;;;;;9.07;2.13;;;4.60;71.40;;;;;;5008160;28;20030;-67
2021/04/05 12:01:24;;;;;;;7.10;1.70;;;4.80;69.60;;;;;;4992964;28;20042;-66
2021/04/05 12:03:54;;;;;;;10.65;3.03;;;5.20;70.20;;;;;;4997571;28;20045;-66
2021/04/05 12:06:24;;;;;;;18.08;9.98;;;5.60;68.80;;;;;;5011934;28;20034;-65
2021/04/05 12:09:02;;;;;;;8.95;4.45;;;5.90;66.20;;;;;;5004065;28;20465;-68
2021/04/05 12:11:39;;;;;;;6.43;1.85;;;5.80;63.00;;;;;;4994580;28;20030;-69
2021/04/05 12:14:14;;;;;;;5.88;1.55;;;5.50;65.90;;;;;;4991526;28;20118;-71
2021/04/05 12:16:47;;;;;;;9.18;4.13;;;5.00;70.40;;;;;;4994006;28;20053;-70
2021/04/05 12:19:18;;;;;;;5.07;1.23;;;4.70;73.10;;;;;;4992940;28;20101;-68
2021/04/05 12:21:50;;;;;;;6.70;1.50;;;4.60;73.80;;;;;;4993704;28;20057;-69
2021/04/05 12:24:24;;;;;;;6.70;1.63;;;4.70;75.00;;;;;;5013492;28;20095;-69
2021/04/05 12:26:55;;;;;;;11.75;2.25;;;4.90;74.30;;;;;;5011619;28;20423;-69
2021/04/05 12:29:25;;;;;;;9.38;2.85;;;5.20;72.60;;;;;;4993145;28;20080;-69
2021/04/05 12:31:55;;;;;;;19.88;7.85;;;5.60;69.50;;;;;;4992056;28;20457;-68
2021/04/05 12:34:27;;;;;;;13.55;6.30;;;6.00;66.60;;;;;;4995693;28;20030;-68
2021/04/05 12:36:53;;;;;;;53.00;26.83;;;6.10;64.90;;;;;;4993268;28;20038;-67
2021/04/05 12:39:20;;;;;;;11.68;6.45;;;5.60;69.60;;;;;;4995288;28;20486;-71
2021/04/05 12:41:48;;;;;;;13.18;5.13;;;5.00;73.60;;;;;;5007532;28;20037;-67
2021/04/05 12:44:31;;;;;;;6.03;1.77;;;4.40;78.20;;;;;;4998232;28;20121;-67
2021/04/05 12:47:00;;;;;;;8.55;1.60;;;3.90;81.00;;;;;;4994050;28;20037;-67
2021/04/05 12:49:34;;;;;;;6.47;2.13;;;3.80;81.90;;;;;;4992558;28;20031;-67
2021/04/05 12:52:06;;;;;;;8.10;1.30;;;3.80;81.50;;;;;;4993154;28;20378;-67
2021/04/05 12:54:35;;;;;;;5.00;1.65;;;3.80;80.70;;;;;;4991307;28;20029;-66
2021/04/05 12:57:03;;;;;;;6.97;1.75;;;4.00;80.30;;;;;;4993945;28;20368;-67
2021/04/05 12:59:29;;;;;;;11.48;4.63;;;4.20;80.10;;;;;;4993798;28;20018;-70
2021/04/05 13:02:06;;;;;;;8.25;2.42;;;4.50;79.30;;;;;;4992807;28;20018;-69
2021/04/05 13:04:34;;;;;;;6.97;1.95;;;4.80;77.90;;;;;;4993892;28;20438;-68
2021/04/05 13:07:10;;;;;;;6.72;2.53;;;5.20;75.30;;;;;;4993548;28;20027;-70
2021/04/05 13:09:40;;;;;;;7.43;1.40;;;5.50;73.80;;;;;;4991717;28;20118;-67
2021/04/05 13:12:09;;;;;;;3.58;1.65;;;5.60;70.00;;;;;;4993600;28;20042;-67
2021/04/05 13:15:07;;;;;;;5.90;1.60;;;5.90;64.30;;;;;;4993945;28;20478;-67
2021/04/05 13:17:39;;;;;;;5.82;2.85;;;6.00;63.50;;;;;;4993054;28;20034;-69
2021/04/05 13:20:11;;;;;;;4.93;1.23;;;6.30;59.50;;;;;;4992383;28;20034;-69
2021/04/05 13:22:41;;;;;;;8.93;1.60;;;6.40;57.40;;;;;;4993170;28;20226;-68
2021/04/05 13:25:11;;;;;;;3.70;1.40;;;6.50;55.90;;;;;;4992391;28;20097;-69
2021/04/05 13:27:39;;;;;;;3.50;1.77;;;6.60;55.30;;;;;;4993799;28;20049;-71
2021/04/05 13:30:07;;;;;;;4.95;1.20;;;6.50;56.10;;;;;;4991471;28;20023;-68
2021/04/05 13:32:40;;;;;;;8.65;1.65;;;6.50;54.50;;;;;;4993627;28;20065;-68
2021/04/05 13:35:10;;;;;;;11.65;1.98;;;6.60;54.40;;;;;;4993283;28;20034;-70
2021/04/05 13:37:45;;;;;;;5.25;1.75;;;6.70;53.50;;;;;;4992982;28;20029;-70
2021/04/05 13:40:12;;;;;;;6.20;1.33;;;7.00;52.80;;;;;;4992463;28;20029;-72
2021/04/05 13:42:39;;;;;;;5.90;1.77;;;7.20;52.70;;;;;;4993553;28;20038;-70
2021/04/05 13:45:10;;;;;;;6.22;1.73;;;7.30;53.40;;;;;;4991407;28;20034;-70
2021/04/05 13:47:41;;;;;;;5.00;1.30;;;7.30;51.20;;;;;;4993600;28;20108;-68
2021/04/05 13:50:07;;;;;;;5.07;1.55;;;7.30;52.30;;;;;;4993476;28;20030;-68
2021/04/05 13:52:34;;;;;;;5.00;1.52;;;7.10;53.10;;;;;;4991455;28;20463;-68
2021/04/05 13:55:16;;;;;;;12.27;6.15;;;6.70;54.70;;;;;;4993108;28;20383;-68
2021/04/05 13:57:47;;;;;;;9.10;2.10;;;6.40;56.60;;;;;;4992813;28;20046;-68
2021/04/05 14:00:15;;;;;;;6.93;1.70;;;6.30;58.00;;;;;;4993482;28;20471;-69
2021/04/05 14:02:51;;;;;;;6.85;1.67;;;6.40;57.00;;;;;;4993233;28;20022;-68
2021/04/05 14:05:18;;;;;;;5.43;1.63;;;6.30;57.30;;;;;;4992532;28;20445;-69
2021/04/05 14:07:47;;;;;;;9.23;2.03;;;6.20;58.90;;;;;;4993063;28;20046;-67
2021/04/05 14:10:15;;;;;;;5.68;1.50;;;6.00;59.60;;;;;;4992327;28;20042;-67
2021/04/05 14:12:46;;;;;;;8.68;1.80;;;5.90;60.20;;;;;;4991164;28;20015;-67
2021/04/05 14:15:12;;;;;;;8.25;1.80;;;5.90;60.20;;;;;;4993200;28;20066;-67
2021/04/05 14:17:43;;;;;;;4.57;1.40;;;5.90;60.80;;;;;;4992038;28;20101;-68
2021/04/05 14:20:17;;;;;;;6.65;1.75;;;5.90;61.70;;;;;;4992499;28;20080;-66
2021/04/05 14:22:46;;;;;;;7.63;2.08;;;6.00;61.90;;;;;;4993204;28;20114;-67
2021/04/05 14:25:29;;;;;;;13.48;7.50;;;5.90;62.00;;;;;;4993070;28;20064;-67
2021/04/05 14:28:09;;;;;;;19.52;12.68;;;5.60;67.00;;;;;;4992134;28;20382;-68
2021/04/05 14:30:40;;;;;;;8.93;1.90;;;5.10;73.60;;;;;;4993167;28;20455;-68
2021/04/05 14:33:11;;;;;;;9.02;6.80;;;4.60;76.90;;;;;;4992204;28;20031;-67
2021/04/05 14:35:41;;;;;;;4.87;1.93;;;4.20;77.70;;;;;;4991742;28;20045;-66
2021/04/05 14:38:23;;;;;;;8.93;1.50;;;4.10;80.00;;;;;;4992756;28;20065;-67
2021/04/05 14:40:51;;;;;;;7.72;3.10;;;4.20;80.30;;;;;;4992073;28;20035;-68
2021/04/05 14:43:33;;;;;;;5.82;1.67;;;4.50;80.30;;;;;;4994495;28;20046;-67
2021/04/05 14:46:06;;;;;;;6.15;1.92;;;4.70;77.70;;;;;;4995860;28;20027;-68
2021/04/05 14:48:32;;;;;;;3.63;1.60;;;4.80;76.20;;;;;;5002526;28;20083;-67
2021/04/05 14:51:00;;;;;;;5.07;1.45;;;5.00;75.90;;;;;;4997032;28;20062;-69
2021/04/05 14:53:29;;;;;;;8.32;5.00;;;5.20;71.30;;;;;;4992867;28;20019;-69
2021/04/05 14:56:01;;;;;;;5.00;1.20;;;5.40;67.40;;;;;;4998670;28;20049;-69
2021/04/05 14:58:27;;;;;;;23.67;13.95;;;5.60;62.30;;;;;;5005817;28;20058;-69
2021/04/05 15:01:10;;;;;;;9.73;3.38;;;5.70;59.40;;;;;;4992992;28;20034;-70
2021/04/05 15:03:37;;;;;;;4.80;1.10;;;5.90;55.70;;;;;;5004759;28;20521;-70
2021/04/05 15:06:14;;;;;;;4.43;1.55;;;5.80;54.30;;;;;;4992833;28;20098;-72
2021/04/05 15:08:43;;;;;;;5.10;1.38;;;5.70;56.40;;;;;;5001360;28;20080;-70
2021/04/05 15:11:15;;;;;;;5.90;4.45;;;5.70;59.10;;;;;;4990291;28;20023;-69
2021/04/05 15:13:48;;;;;;;4.43;2.95;;;5.80;59.50;;;;;;4991906;28;20565;-72
2021/04/05 15:16:28;;;;;;;5.68;1.65;;;5.80;60.10;;;;;;4988090;28;20042;-72
2021/04/05 15:18:56;;;;;;;3.33;1.17;;;5.80;61.00;;;;;;4991344;28;20402;-68
2021/04/05 15:21:27;;;;;;;2.30;1.08;;;5.80;62.30;;;;;;4991967;28;20030;-70
2021/04/05 15:23:55;;;;;;;5.35;1.15;;;5.80;62.30;;;;;;4991507;28;20536;-68
2021/04/05 15:26:24;;;;;;;3.58;1.30;;;5.70;62.10;;;;;;4994067;28;20179;-71
2021/04/05 15:28:51;;;;;;;5.15;1.50;;;5.80;63.70;;;;;;5001808;28;20022;-66
2021/04/05 15:31:21;;;;;;;3.85;1.08;;;5.90;63.30;;;;;;4989900;28;20494;-67
2021/04/05 15:33:49;;;;;;;3.35;1.25;;;6.20;62.20;;;;;;4990563;28;20518;-65
2021/04/05 15:36:25;;;;;;;3.10;1.15;;;6.40;62.20;;;;;;4989916;28;20037;-70
2021/04/05 15:38:51;;;;;;;2.88;1.38;;;6.70;62.20;;;;;;4994938;28;20033;-68
2021/04/05 15:41:24;;;;;;;4.15;1.65;;;7.10;62.40;;;;;;5002100;28;20037;-67
2021/04/05 15:44:11;;;;;;;6.53;1.60;;;7.30;59.40;;;;;;5008939;28;20523;-67
2021/04/05 15:46:49;;;;;;;11.20;1.73;;;7.50;60.00;;;;;;5007728;28;20042;-71
2021/04/05 15:49:23;;;;;;;5.82;2.22;;;7.80;59.90;;;;;;5005921;28;20586;-68
2021/04/05 15:52:09;;;;;;;8.52;2.83;;;7.90;58.20;;;;;;5006066;28;20036;-71
2021/04/05 15:54:49;;;;;;;27.17;11.23;;;7.80;58.90;;;;;;5009783;28;20022;-69
2021/04/05 15:57:25;;;;;;;6.75;1.70;;;7.70;57.50;;;;;;5007861;28;20084;-70
2021/04/05 15:59:59;;;;;;;6.45;3.05;;;7.40;58.90;;;;;;5013851;28;20544;-68
2021/04/05 16:02:28;;;;;;;14.07;4.45;;;7.10;59.70;;;;;;5014843;28;20037;-67
2021/04/05 16:04:57;;;;;;;8.05;2.72;;;6.70;60.50;;;;;;5011756;28;20034;-65
2021/04/05 16:07:44;;;;;;;4.32;1.23;;;6.50;62.50;;;;;;5013923;28;20109;-65
2021/04/05 16:10:19;;;;;;;8.60;2.38;;;6.30;63.70;;;;;;4995778;28;20541;-64
2021/04/05 16:12:52;;;;;;;10.68;1.88;;;6.00;64.60;;;;;;4994852;28;20026;-66
2021/04/05 16:15:26;;;;;;;6.88;1.50;;;5.90;65.30;;;;;;5002992;28;20081;-71
2021/04/05 16:17:57;;;;;;;3.67;1.48;;;5.70;68.70;;;;;;5012491;28;20119;-67
2021/04/05 16:20:25;;;;;;;5.83;2.97;;;5.60;70.60;;;;;;5011898;28;20018;-68
2021/04/05 16:23:06;;;;;;;10.02;2.33;;;5.50;72.00;;;;;;5012411;28;20281;-69
2021/04/05 16:25:35;;;;;;;6.15;2.13;;;5.40;71.90;;;;;;5006034;28;20036;-71
2021/04/05 16:28:04;;;;;;;5.18;2.15;;;5.30;72.30;;;;;;5010284;28;20036;-72
2021/04/05 16:30:33;;;;;;;8.98;1.80;;;5.30;71.60;;;;;;5010559;28;20048;-70
2021/04/05 16:33:21;;;;;;;3.97;2.38;;;5.30;70.50;;;;;;5010185;28;20444;-69
2021/04/05 16:35:51;;;;;;;2.50;1.10;;;5.40;69.70;;;;;;5012218;28;20045;-66
2021/04/05 16:38:33;;;;;;;8.25;4.53;;;5.50;66.30;;;;;;5013883;28;20025;-70
2021/04/05 16:41:08;;;;;;;5.10;2.72;;;5.60;65.20;;;;;;5002268;28;20471;-70
2021/04/05 16:43:39;;;;;;;6.60;3.45;;;5.90;64.40;;;;;;5005383;28;20046;-67
2021/04/05 16:46:08;;;;;;;5.00;1.52;;;5.80;63.50;;;;;;4999196;28;20043;-67
2021/04/05 16:48:36;;;;;;;8.75;1.88;;;5.60;63.80;;;;;;4993641;28;20026;-68
2021/04/05 16:51:11;;;;;;;9.27;5.05;;;5.50;65.30;;;;;;5004835;28;20033;-66
2021/04/05 16:53:39;;;;;;;4.53;1.50;;;5.40;66.70;;;;;;5009982;28;20032;-69
2021/04/05 16:56:09;;;;;;;11.98;2.65;;;5.20;66.90;;;;;;5002101;28;20061;-67
2021/04/05 16:58:44;;;;;;;7.25;2.13;;;5.40;67.90;;;;;;5009492;28;20493;-68
2021/04/05 17:01:12;;;;;;;6.97;1.88;;;5.90;68.10;;;;;;5002265;28;20112;-70
2021/04/05 17:03:45;;;;;;;6.85;1.80;;;6.30;67.10;;;;;;5012921;28;20018;-71
2021/04/05 17:06:16;;;;;;;5.07;1.70;;;6.30;66.60;;;;;;5010838;28;20025;-70
2021/04/05 17:08:47;;;;;;;6.53;1.40;;;5.90;67.80;;;;;;5004401;28;20363;-68
2021/04/05 17:11:21;;;;;;;7.60;1.80;;;5.50;69.70;;;;;;5008501;28;20036;-69
2021/04/05 17:14:00;;;;;;;5.90;1.98;;;5.20;71.80;;;;;;5011234;28;20045;-67
2021/04/05 17:16:43;;;;;;;10.02;1.70;;;5.00;72.20;;;;;;5006069;28;20445;-67
2021/04/05 17:19:14;;;;;;;21.38;6.90;;;4.80;73.10;;;;;;4997640;28;20049;-69
2021/04/05 17:21:40;;;;;;;5.18;2.15;;;4.70;77.20;;;;;;5011939;28;20033;-68
2021/04/05 17:24:11;;;;;;;6.78;1.70;;;4.30;83.20;;;;;;5012537;28;20018;-68
2021/04/05 17:26:42;;;;;;;3.13;1.67;;;3.80;85.00;;;;;;5011400;28;20367;-68
2021/04/05 17:29:20;;;;;;;5.85;1.42;;;3.60;86.40;;;;;;5011835;28;20025;-72
2021/04/05 17:31:55;;;;;;;3.72;1.42;;;3.50;86.60;;;;;;4998606;28;20117;-71
2021/04/05 17:34:25;;;;;;;6.50;2.40;;;3.40;87.20;;;;;;4996264;28;20034;-71
2021/04/05 17:36:57;;;;;;;7.00;1.85;;;3.40;86.60;;;;;;5002169;28;20383;-69
2021/04/05 17:39:33;;;;;;;10.05;2.00;;;3.20;86.30;;;;;;4991762;28;20021;-69
2021/04/05 17:42:07;;;;;;;8.70;6.30;;;3.10;87.10;;;;;;4999064;28;20077;-71
2021/04/05 17:44:41;;;;;;;7.13;1.73;;;3.10;87.70;;;;;;5000874;28;20033;-70
2021/04/05 17:47:17;;;;;;;7.35;2.05;;;3.10;87.60;;;;;;5007652;28;20030;-72
2021/04/05 17:50:02;;;;;;;10.38;2.90;;;3.10;87.40;;;;;;4999893;28;20390;-73
2021/04/05 17:52:29;;;;;;;4.25;1.85;;;3.20;87.20;;;;;;5003938;28;20034;-72
2021/04/05 17:55:07;;;;;;;6.22;2.15;;;3.20;87.60;;;;;;5004456;28;20441;-73
2021/04/05 17:57:49;;;;;;;8.50;2.58;;;3.20;87.00;;;;;;5008874;28;20053;-71
2021/04/05 18:00:32;;;;;;;28.92;3.60;;;3.20;86.90;;;;;;4997694;28;20117;-74
2021/04/05 18:03:11;;;;;;;8.27;3.22;;;3.20;87.40;;;;;;4991876;28;20057;-71
2021/04/05 18:05:46;;;;;;;8.10;2.63;;;3.20;87.70;;;;;;4997658;28;20026;-69
2021/04/05 18:08:38;;;;;;;6.38;2.33;;;3.30;87.20;;;;;;5012046;28;20108;-72
2021/04/05 18:11:12;;;;;;;23.30;18.80;;;3.40;86.60;;;;;;5010223;28;20036;-71
2021/04/05 18:14:03;;;;;;;5.82;2.13;;;3.50;86.80;;;;;;4993375;28;20034;-68
2021/04/05 18:16:36;;;;;;;13.68;2.40;;;3.50;86.60;;;;;;5001795;28;20038;-69